首页
METAR-TAF:

METAR-TAF

机场 :

Grand Marais, 明尼蘇達州, 美国

纬度: 47-50-18N, 经度: 090-22-59W, 海拔: 548米

当前天气观测

该预报发布于33分钟前的21:28 UTC
风速4节,风向
温度 16°C
湿度 27%
气压 1019 hPa
能見度: 16.1公里
散云层高于8500英尺

METAR: KCKC 142128Z AUTO 18004KT 10SM SCT085 16/M03 A3009 RMK AO2

时间: 17:01 (22:01 UTC)


TAF: 丢失

超过4000个机场的气象观测和天气预报(METAR&TAF报告)。

可查询的气象台以黄色和红色小点在地图上表示。

将鼠标移到小点上方,可查看气象台名称。

然后点击查看天气观测和预报。

如需切换地图:点击带黑十字的绿色按钮放大地图;点击带横线的绿色按钮缩小地图;或者点击绿色箭头查看邻近地区的地图。


METAR-TAF: